Time;durP1;ratioP1;P1;durP2;ratioP2;P2;SDS_P1;SDS_P2;PMS_P1;PMS_P2;Temp;Humidity;BMP_temperature;BMP_pressure;BME280_temperature;BME280_humidity;BME280_pressure;Samples;Min_cycle;Max_cycle;Signal;HPM_P1;HPM_P2
2023/10/27 00:00:03;;;;;;;4.97;1.27;;;17.30;99.90;;;;;;5052035;28;20029;-80
2023/10/27 00:02:29;;;;;;;3.45;1.05;;;17.40;99.90;;;;;;5052917;28;20024;-80
2023/10/27 00:04:54;;;;;;;3.45;1.27;;;17.40;99.90;;;;;;5052789;28;20025;-79
2023/10/27 00:07:20;;;;;;;2.15;1.00;;;17.30;99.90;;;;;;5034910;28;20053;-80
2023/10/27 00:09:46;;;;;;;3.22;1.02;;;17.40;99.90;;;;;;5052952;28;20032;-81
2023/10/27 00:12:12;;;;;;;1.50;0.77;;;17.40;99.90;;;;;;5052989;28;20504;-80
2023/10/27 00:14:38;;;;;;;7.97;1.35;;;17.40;99.90;;;;;;5052959;28;20036;-80
2023/10/27 00:17:03;;;;;;;4.82;1.05;;;17.40;99.90;;;;;;5052928;28;20033;-81
2023/10/27 00:19:32;;;;;;;4.38;1.20;;;17.30;99.90;;;;;;5052888;28;20100;-79
2023/10/27 00:22:01;;;;;;;3.33;1.20;;;17.30;99.90;;;;;;5052912;28;20445;-80
2023/10/27 00:24:27;;;;;;;4.88;1.25;;;17.40;99.90;;;;;;5052979;28;20075;-79
2023/10/27 00:26:53;;;;;;;3.70;1.20;;;17.40;99.90;;;;;;5052689;28;20025;-80
2023/10/27 00:29:18;;;;;;;2.55;1.20;;;17.30;99.90;;;;;;5052573;28;20376;-81
2023/10/27 00:31:44;;;;;;;3.20;1.02;;;17.30;99.90;;;;;;5052472;28;20021;-80
2023/10/27 00:34:10;;;;;;;1.90;1.10;;;17.30;99.90;;;;;;5052075;28;20061;-80
2023/10/27 00:36:36;;;;;;;2.90;0.98;;;17.40;99.90;;;;;;5052281;28;20041;-80
2023/10/27 00:39:08;;;;;;;3.15;1.02;;;17.40;99.90;;;;;;5044235;28;20384;-81
2023/10/27 00:41:36;;;;;;;4.57;1.33;;;17.40;99.90;;;;;;5032854;28;20041;-80
2023/10/27 00:44:02;;;;;;;1.55;1.00;;;17.30;99.90;;;;;;5032622;28;20049;-80
2023/10/27 00:46:28;;;;;;;2.30;0.85;;;17.30;99.90;;;;;;5032204;28;20028;-81
2023/10/27 00:48:57;;;;;;;2.00;1.02;;;17.40;99.90;;;;;;5032109;28;20018;-80
2023/10/27 00:51:23;;;;;;;1.67;1.05;;;17.40;99.90;;;;;;5032664;28;20092;-81
2023/10/27 00:53:51;;;;;;;3.30;1.00;;;17.40;99.90;;;;;;5032385;28;20553;-80
2023/10/27 00:56:20;;;;;;;0.90;0.50;;;17.40;99.90;;;;;;5032517;28;20037;-79
2023/10/27 00:58:49;;;;;;;2.80;0.88;;;17.40;99.90;;;;;;5030460;28;20655;-80
2023/10/27 01:01:17;;;;;;;2.78;0.70;;;17.40;99.90;;;;;;5029665;28;20051;-80
2023/10/27 01:03:44;;;;;;;3.47;0.80;;;17.40;99.90;;;;;;5029838;28;20421;-80
2023/10/27 01:06:10;;;;;;;5.38;0.82;;;17.40;99.90;;;;;;5032271;28;20029;-80
2023/10/27 01:08:36;;;;;;;7.20;1.00;;;17.40;99.90;;;;;;5031156;28;20018;-80
2023/10/27 01:11:02;;;;;;;2.75;0.77;;;17.40;99.90;;;;;;5032237;28;20455;-79
2023/10/27 01:13:28;;;;;;;3.10;0.80;;;17.40;99.90;;;;;;5035741;28;20026;-80
2023/10/27 01:15:54;;;;;;;6.80;0.98;;;17.50;99.90;;;;;;5035985;28;20075;-79
2023/10/27 01:18:20;;;;;;;4.53;0.85;;;17.40;99.90;;;;;;5036030;28;20164;-79
2023/10/27 01:20:45;;;;;;;5.78;0.95;;;17.50;99.90;;;;;;5035935;28;20021;-78
2023/10/27 01:23:11;;;;;;;4.15;1.20;;;17.50;99.90;;;;;;5036016;28;20080;-80
2023/10/27 01:25:37;;;;;;;5.07;1.65;;;17.40;99.90;;;;;;5035788;28;20112;-80
2023/10/27 01:28:03;;;;;;;4.20;0.90;;;17.50;99.90;;;;;;5035238;28;20156;-80
2023/10/27 01:30:29;;;;;;;8.55;1.20;;;17.40;99.90;;;;;;5035970;28;20476;-80
2023/10/27 01:32:58;;;;;;;5.30;1.33;;;17.40;99.90;;;;;;5035751;28;20057;-80
2023/10/27 01:35:24;;;;;;;5.03;1.20;;;17.50;99.90;;;;;;5035265;28;20017;-79
2023/10/27 01:37:49;;;;;;;4.10;0.95;;;17.50;99.90;;;;;;5035575;28;20026;-80
2023/10/27 01:40:16;;;;;;;9.25;1.63;;;17.50;99.90;;;;;;5036240;28;20381;-82
2023/10/27 01:42:42;;;;;;;7.43;1.65;;;17.50;99.90;;;;;;5035242;28;20037;-80
2023/10/27 01:45:08;;;;;;;18.15;2.45;;;17.50;99.90;;;;;;5035401;28;20014;-80
2023/10/27 01:47:34;;;;;;;26.58;3.67;;;17.50;99.90;;;;;;5035687;28;20021;-80
2023/10/27 01:50:03;;;;;;;20.25;3.53;;;17.50;99.90;;;;;;5035519;28;20033;-80
2023/10/27 01:52:32;;;;;;;26.35;3.45;;;17.60;99.90;;;;;;5035581;28;20048;-81
2023/10/27 01:54:57;;;;;;;33.08;4.00;;;17.70;99.90;;;;;;5035182;28;20528;-81
2023/10/27 01:57:24;;;;;;;32.38;4.15;;;17.70;99.90;;;;;;5034957;28;20038;-81
2023/10/27 01:59:50;;;;;;;29.65;4.22;;;17.80;99.90;;;;;;5035196;28;20025;-80
2023/10/27 02:02:16;;;;;;;26.83;4.38;;;17.80;99.90;;;;;;5035105;28;20485;-80
2023/10/27 02:04:43;;;;;;;25.77;4.05;;;17.90;99.90;;;;;;5035490;28;20055;-81
2023/10/27 02:07:09;;;;;;;30.92;4.53;;;17.90;99.90;;;;;;5035341;28;20025;-80
2023/10/27 02:09:34;;;;;;;26.33;3.90;;;17.90;99.90;;;;;;5034942;28;20440;-79
2023/10/27 02:12:00;;;;;;;18.73;3.10;;;18.00;99.90;;;;;;5035304;28;20544;-81
2023/10/27 02:14:26;;;;;;;18.80;3.05;;;18.00;99.90;;;;;;5034773;28;20030;-80
2023/10/27 02:16:52;;;;;;;28.55;3.95;;;18.10;99.90;;;;;;5035030;28;20037;-80
2023/10/27 02:19:21;;;;;;;27.20;4.00;;;18.10;99.90;;;;;;5034721;28;20025;-82
2023/10/27 02:21:47;;;;;;;26.70;3.83;;;18.10;99.90;;;;;;5035036;28;20048;-80
2023/10/27 02:24:13;;;;;;;22.38;3.55;;;18.20;99.90;;;;;;5033931;28;20532;-79
2023/10/27 02:26:39;;;;;;;19.40;3.38;;;18.20;99.90;;;;;;5034830;28;20064;-80
2023/10/27 02:29:04;;;;;;;19.55;3.00;;;18.30;99.90;;;;;;5034796;28;20033;-79
2023/10/27 02:31:36;;;;;;;26.10;3.58;;;18.30;99.90;;;;;;5034284;28;20030;-79
2023/10/27 02:34:03;;;;;;;20.75;3.35;;;18.30;99.90;;;;;;5034275;28;20041;-79
2023/10/27 02:36:29;;;;;;;26.50;3.97;;;18.30;99.90;;;;;;5034077;28;20034;-79
2023/10/27 02:38:55;;;;;;;21.70;3.28;;;18.30;99.90;;;;;;5034228;28;20045;-78
2023/10/27 02:41:21;;;;;;;18.55;4.28;;;18.30;99.90;;;;;;5034404;28;20065;-79
2023/10/27 02:43:47;;;;;;;18.60;3.00;;;18.30;99.90;;;;;;5034245;28;20017;-80
2023/10/27 02:46:13;;;;;;;19.15;4.10;;;18.40;99.90;;;;;;5034268;28;20033;-79
2023/10/27 02:48:42;;;;;;;21.65;3.80;;;18.30;99.90;;;;;;5034372;28;20481;-79
2023/10/27 02:51:12;;;;;;;16.45;2.92;;;18.40;99.90;;;;;;5033991;28;20056;-77
2023/10/27 02:53:40;;;;;;;20.65;3.97;;;18.40;99.90;;;;;;5034149;28;20052;-79
2023/10/27 02:56:10;;;;;;;20.17;3.65;;;18.40;99.90;;;;;;5033868;28;20111;-79
2023/10/27 02:58:37;;;;;;;22.98;3.78;;;18.40;99.90;;;;;;5034049;28;20049;-79
2023/10/27 03:01:10;;;;;;;25.75;3.70;;;18.50;99.90;;;;;;5034125;28;20033;-77
2023/10/27 03:03:36;;;;;;;23.08;4.00;;;18.40;99.90;;;;;;5033832;28;20045;-79
2023/10/27 03:06:03;;;;;;;25.13;3.92;;;18.40;99.90;;;;;;5034287;28;20369;-78
2023/10/27 03:08:31;;;;;;;30.48;4.22;;;18.40;99.90;;;;;;5033750;28;20437;-77
2023/10/27 03:10:57;;;;;;;29.27;4.55;;;18.40;99.90;;;;;;5033633;28;20033;-78
2023/10/27 03:13:23;;;;;;;24.80;3.67;;;18.40;99.90;;;;;;5033765;28;20017;-79
2023/10/27 03:15:49;;;;;;;23.58;4.15;;;18.40;99.90;;;;;;5033593;28;20037;-79
2023/10/27 03:18:15;;;;;;;22.40;3.88;;;18.40;99.90;;;;;;5033629;28;20028;-78
2023/10/27 03:20:40;;;;;;;25.65;4.18;;;18.40;99.90;;;;;;5032391;28;20171;-80
2023/10/27 03:23:06;;;;;;;29.20;5.13;;;18.40;99.90;;;;;;5033577;28;20013;-79
2023/10/27 03:25:32;;;;;;;21.50;3.05;;;18.40;99.90;;;;;;5033381;28;20482;-79
2023/10/27 03:27:58;;;;;;;24.85;3.95;;;18.50;99.90;;;;;;5033711;28;20028;-79
2023/10/27 03:30:25;;;;;;;27.02;3.35;;;18.50;99.90;;;;;;5033570;28;20036;-79
2023/10/27 03:32:51;;;;;;;25.35;4.70;;;18.50;99.90;;;;;;5033428;28;20449;-80
2023/10/27 03:35:17;;;;;;;19.63;3.42;;;18.50;99.90;;;;;;5033637;28;20028;-79
2023/10/27 03:37:46;;;;;;;27.17;3.55;;;18.50;99.90;;;;;;5033396;28;20026;-80
2023/10/27 03:40:12;;;;;;;24.50;4.05;;;18.50;99.90;;;;;;5033260;28;20021;-79
2023/10/27 03:42:38;;;;;;;20.60;3.15;;;18.50;99.90;;;;;;5033363;28;20022;-78
2023/10/27 03:45:05;;;;;;;21.48;3.55;;;18.50;99.90;;;;;;5033548;28;20029;-79
2023/10/27 03:47:31;;;;;;;32.22;4.38;;;18.60;99.90;;;;;;5033119;28;20373;-80
2023/10/27 03:50:00;;;;;;;21.95;2.80;;;18.60;99.90;;;;;;5033306;28;20029;-79
2023/10/27 03:52:28;;;;;;;17.25;2.22;;;18.60;99.90;;;;;;5032812;28;20384;-81
2023/10/27 03:54:55;;;;;;;17.80;3.45;;;18.70;99.90;;;;;;5033096;28;20026;-80
2023/10/27 03:57:24;;;;;;;18.15;2.67;;;18.60;99.90;;;;;;5032768;28;20071;-80
2023/10/27 03:59:53;;;;;;;14.85;2.60;;;18.70;99.90;;;;;;5032898;28;20027;-78
2023/10/27 04:02:21;;;;;;;17.88;2.67;;;18.70;99.90;;;;;;5033005;28;20064;-79
2023/10/27 04:04:51;;;;;;;17.75;2.60;;;18.70;99.90;;;;;;5032784;28;20389;-79
2023/10/27 04:07:19;;;;;;;19.85;2.63;;;18.70;99.90;;;;;;5032883;28;20028;-80
2023/10/27 04:09:45;;;;;;;21.55;3.75;;;18.80;99.90;;;;;;5031448;28;20037;-80
2023/10/27 04:12:11;;;;;;;18.95;2.83;;;18.80;99.90;;;;;;5032818;28;20021;-81
2023/10/27 04:14:36;;;;;;;13.27;2.83;;;18.80;99.90;;;;;;5032674;28;20029;-81
2023/10/27 04:17:02;;;;;;;15.90;2.78;;;18.80;99.90;;;;;;5033002;28;20036;-81
2023/10/27 04:19:28;;;;;;;16.38;3.10;;;18.80;99.90;;;;;;5032943;28;20032;-80
2023/10/27 04:21:55;;;;;;;18.00;3.10;;;18.80;99.90;;;;;;5032362;28;20125;-81
2023/10/27 04:24:21;;;;;;;20.95;2.78;;;18.80;99.90;;;;;;5032560;28;20018;-80
2023/10/27 04:26:47;;;;;;;20.48;3.85;;;18.90;99.90;;;;;;5032565;28;20022;-81
2023/10/27 04:29:13;;;;;;;19.63;3.53;;;18.90;99.90;;;;;;5032693;28;20036;-81
2023/10/27 04:31:42;;;;;;;23.85;3.08;;;18.90;99.90;;;;;;5032608;28;20448;-81
2023/10/27 04:34:08;;;;;;;19.45;3.45;;;18.90;99.90;;;;;;5032327;28;20049;-80
2023/10/27 04:36:34;;;;;;;21.63;3.10;;;18.90;99.90;;;;;;5032569;28;20129;-79
2023/10/27 04:39:00;;;;;;;19.50;3.60;;;18.90;99.90;;;;;;5032680;28;20032;-81
2023/10/27 04:41:30;;;;;;;25.73;5.18;;;18.90;99.90;;;;;;5032625;28;20030;-78
2023/10/27 04:43:56;;;;;;;21.73;3.95;;;19.00;99.90;;;;;;5030994;28;20029;-81
2023/10/27 04:46:22;;;;;;;21.33;4.38;;;19.00;99.90;;;;;;5033108;28;20498;-80
2023/10/27 04:48:48;;;;;;;28.50;4.53;;;19.00;99.90;;;;;;5036760;28;20060;-79
2023/10/27 04:51:15;;;;;;;20.83;4.25;;;19.00;99.90;;;;;;5036406;28;20025;-81
2023/10/27 04:53:41;;;;;;;28.27;4.18;;;19.10;99.90;;;;;;5036082;28;20018;-80
2023/10/27 04:56:07;;;;;;;29.77;4.78;;;19.10;99.90;;;;;;5036221;28;20420;-80
2023/10/27 04:58:36;;;;;;;28.75;4.22;;;19.10;99.90;;;;;;5036547;28;20060;-81
2023/10/27 05:01:05;;;;;;;33.20;5.82;;;19.10;99.90;;;;;;5036195;28;20393;-80
2023/10/27 05:03:34;;;;;;;27.10;4.45;;;19.10;99.90;;;;;;5036162;28;20029;-81
2023/10/27 05:06:10;;;;;;;29.80;4.70;;;19.10;99.90;;;;;;5036106;28;20033;-80
2023/10/27 05:08:36;;;;;;;36.67;4.82;;;19.10;99.90;;;;;;5035968;28;20044;-81
2023/10/27 05:11:03;;;;;;;30.20;4.68;;;19.00;99.90;;;;;;5036038;28;20128;-79
2023/10/27 05:13:29;;;;;;;25.35;4.70;;;19.00;99.90;;;;;;5035775;28;20025;-81
2023/10/27 05:15:55;;;;;;;34.65;5.68;;;19.00;99.90;;;;;;5035832;28;20037;-80
2023/10/27 05:18:24;;;;;;;34.55;5.68;;;19.00;99.90;;;;;;5036207;28;20033;-80
2023/10/27 05:20:53;;;;;;;26.58;4.82;;;19.00;99.90;;;;;;5035635;28;20448;-80
2023/10/27 05:23:18;;;;;;;31.38;5.40;;;19.00;99.90;;;;;;5035478;28;20029;-80
2023/10/27 05:25:44;;;;;;;32.13;5.15;;;19.00;99.90;;;;;;5035870;28;20036;-79
2023/10/27 05:28:10;;;;;;;27.63;4.30;;;19.00;99.90;;;;;;5035716;28;20021;-78
2023/10/27 05:30:37;;;;;;;24.95;4.25;;;18.90;99.90;;;;;;5035773;28;20088;-79
2023/10/27 05:33:04;;;;;;;21.42;4.43;;;18.90;99.90;;;;;;5035350;28;20137;-80
2023/10/27 05:35:30;;;;;;;31.10;4.35;;;18.90;99.90;;;;;;5035510;28;20057;-80
2023/10/27 05:37:55;;;;;;;26.73;4.10;;;19.00;99.90;;;;;;5035225;28;20023;-80
2023/10/27 05:40:24;;;;;;;39.90;4.15;;;19.00;99.90;;;;;;5035515;28;20501;-78
2023/10/27 05:42:50;;;;;;;28.88;6.15;;;19.00;99.90;;;;;;5035971;28;20394;-81
2023/10/27 05:45:18;;;;;;;31.33;4.53;;;19.00;99.90;;;;;;5035065;28;20029;-80
2023/10/27 05:47:47;;;;;;;27.65;4.38;;;19.00;99.90;;;;;;5035440;28;20026;-79
2023/10/27 05:50:13;;;;;;;26.98;4.70;;;19.10;99.90;;;;;;5035463;28;20065;-79
2023/10/27 05:52:39;;;;;;;28.73;5.10;;;19.00;99.90;;;;;;5035225;28;20067;-81
2023/10/27 05:55:05;;;;;;;27.23;4.30;;;19.00;99.90;;;;;;5035193;28;20017;-80
2023/10/27 05:57:34;;;;;;;36.58;4.95;;;19.00;99.90;;;;;;5034902;28;20038;-80
2023/10/27 06:00:04;;;;;;;30.85;5.32;;;19.10;99.90;;;;;;5034362;28;20029;-79
2023/10/27 06:02:32;;;;;;;35.83;6.05;;;19.10;99.90;;;;;;5035211;28;20071;-79
2023/10/27 06:04:58;;;;;;;31.35;5.05;;;19.10;99.90;;;;;;5034944;28;20017;-79
2023/10/27 06:07:24;;;;;;;27.48;4.90;;;19.10;99.90;;;;;;5034857;28;20023;-80
2023/10/27 06:09:50;;;;;;;35.53;5.70;;;19.10;99.90;;;;;;5035044;28;20382;-75
2023/10/27 06:12:16;;;;;;;30.45;5.57;;;19.10;99.90;;;;;;5032990;28;20108;-80
2023/10/27 06:14:44;;;;;;;35.17;5.30;;;19.10;99.90;;;;;;5045816;28;20044;-79
2023/10/27 06:17:12;;;;;;;34.55;5.35;;;19.10;99.90;;;;;;5054235;28;20036;-79
2023/10/27 06:19:38;;;;;;;34.55;4.68;;;19.10;99.90;;;;;;5043646;28;20460;-80
2023/10/27 06:22:05;;;;;;;31.95;4.30;;;19.10;99.90;;;;;;4996971;28;20056;-79
2023/10/27 06:24:31;;;;;;;32.40;4.50;;;19.10;99.90;;;;;;5054015;28;20036;-78
2023/10/27 06:26:58;;;;;;;31.58;5.10;;;19.10;99.90;;;;;;5054053;28;20021;-78
2023/10/27 06:29:27;;;;;;;33.10;4.43;;;19.10;99.90;;;;;;5053877;28;20025;-79
2023/10/27 06:31:53;;;;;;;30.40;4.40;;;19.10;99.90;;;;;;5053488;28;20028;-79
2023/10/27 06:34:19;;;;;;;41.33;6.20;;;19.20;99.90;;;;;;5054165;28;20049;-79
2023/10/27 06:36:45;;;;;;;34.50;5.85;;;19.20;99.90;;;;;;5054420;28;20381;-79
2023/10/27 06:39:17;;;;;;;41.28;5.25;;;19.20;99.90;;;;;;5054341;28;20052;-75
2023/10/27 06:41:43;;;;;;;48.75;6.85;;;19.20;99.90;;;;;;5053369;28;20373;-75
2023/10/27 06:44:09;;;;;;;32.40;5.03;;;19.20;99.90;;;;;;5052692;28;20025;-75
2023/10/27 06:46:34;;;;;;;30.45;6.20;;;19.20;99.90;;;;;;5052783;28;20021;-75
2023/10/27 06:49:03;;;;;;;32.30;5.30;;;19.20;99.90;;;;;;5052953;28;20032;-75
2023/10/27 06:51:31;;;;;;;30.83;5.53;;;19.20;99.90;;;;;;5052991;28;20041;-75
2023/10/27 06:53:57;;;;;;;30.80;4.75;;;19.20;99.90;;;;;;5052737;28;20032;-76
2023/10/27 06:56:23;;;;;;;34.20;4.63;;;19.30;99.90;;;;;;5051832;28;20041;-74
2023/10/27 06:58:49;;;;;;;27.98;4.10;;;19.30;99.90;;;;;;5052807;28;20021;-77
2023/10/27 07:01:17;;;;;;;30.15;4.50;;;19.30;99.90;;;;;;5052583;28;20696;-75
2023/10/27 07:03:44;;;;;;;24.35;4.97;;;19.30;99.90;;;;;;5053012;28;20083;-75
2023/10/27 07:06:12;;;;;;;26.42;4.53;;;19.30;99.90;;;;;;5053382;28;20104;-74
2023/10/27 07:08:38;;;;;;;24.27;4.28;;;19.30;99.90;;;;;;5053547;28;20083;-74
2023/10/27 07:11:04;;;;;;;26.58;4.00;;;19.30;99.90;;;;;;5053351;28;20021;-76
2023/10/27 07:13:33;;;;;;;28.05;4.85;;;19.30;99.90;;;;;;5053154;28;20444;-75
2023/10/27 07:16:02;;;;;;;29.23;5.05;;;19.30;99.90;;;;;;5053326;28;20079;-75
2023/10/27 07:18:29;;;;;;;30.27;4.75;;;19.40;99.90;;;;;;5053492;28;20021;-76
2023/10/27 07:20:56;;;;;;;26.50;4.57;;;19.40;99.90;;;;;;5053594;28;20436;-76
2023/10/27 07:23:23;;;;;;;30.05;5.40;;;19.30;99.90;;;;;;5053092;28;20369;-79
2023/10/27 07:25:49;;;;;;;31.65;5.18;;;19.40;99.90;;;;;;5053303;28;20017;-79
2023/10/27 07:28:15;;;;;;;33.28;5.38;;;19.40;99.90;;;;;;5052984;28;20025;-78
2023/10/27 07:30:41;;;;;;;34.95;5.57;;;19.40;99.90;;;;;;5052686;28;20025;-78
2023/10/27 07:33:07;;;;;;;36.58;5.68;;;19.40;99.90;;;;;;5052778;28;20064;-78
2023/10/27 07:35:33;;;;;;;35.17;5.15;;;19.40;99.90;;;;;;5052794;28;20408;-79
2023/10/27 07:38:03;;;;;;;31.77;4.90;;;19.40;99.90;;;;;;5053259;28;20032;-76
2023/10/27 07:40:30;;;;;;;37.63;5.50;;;19.40;99.90;;;;;;5053055;28;20044;-78
2023/10/27 07:42:57;;;;;;;28.48;4.88;;;19.40;99.90;;;;;;5052807;28;20029;-75
2023/10/27 07:45:26;;;;;;;34.70;5.07;;;19.40;99.90;;;;;;5052978;28;20017;-75
2023/10/27 07:47:52;;;;;;;31.15;5.20;;;19.40;99.90;;;;;;5052902;28;20028;-76
2023/10/27 07:50:18;;;;;;;28.55;4.63;;;19.40;99.90;;;;;;5052592;28;20028;-76
2023/10/27 07:52:47;;;;;;;18.73;4.22;;;19.30;99.90;;;;;;5051796;28;20033;-76
2023/10/27 07:55:18;;;;;;;15.05;2.80;;;19.30;99.90;;;;;;5034971;28;20021;-75
2023/10/27 07:57:47;;;;;;;11.52;3.28;;;19.20;99.90;;;;;;5052539;28;20392;-75
2023/10/27 08:00:17;;;;;;;11.18;2.58;;;19.10;99.90;;;;;;5053084;28;20075;-74
2023/10/27 08:02:43;;;;;;;7.35;1.80;;;19.10;99.90;;;;;;5052792;28;20029;-75
2023/10/27 08:05:14;;;;;;;8.55;1.92;;;19.00;99.90;;;;;;5052622;28;20100;-75
2023/10/27 08:07:40;;;;;;;8.70;1.90;;;18.90;99.90;;;;;;5052732;28;20025;-75
2023/10/27 08:10:07;;;;;;;7.40;1.65;;;18.90;99.90;;;;;;5052616;28;20036;-74
2023/10/27 08:12:34;;;;;;;4.28;1.48;;;18.90;99.90;;;;;;5052799;28;20431;-75
2023/10/27 08:15:04;;;;;;;7.25;1.80;;;18.80;99.90;;;;;;5053081;28;20055;-74
2023/10/27 08:17:33;;;;;;;5.05;1.50;;;18.80;99.90;;;;;;5052893;28;20382;-75
2023/10/27 08:19:59;;;;;;;6.10;1.60;;;18.70;99.90;;;;;;5052555;28;20155;-75
2023/10/27 08:22:25;;;;;;;6.03;1.70;;;18.70;99.90;;;;;;5052128;28;20029;-75
2023/10/27 08:24:51;;;;;;;5.03;1.83;;;18.70;99.90;;;;;;5052590;28;20032;-75
2023/10/27 08:27:18;;;;;;;8.50;2.45;;;18.60;99.90;;;;;;5052399;28;20033;-75
2023/10/27 08:29:44;;;;;;;5.63;1.48;;;18.60;99.90;;;;;;5052399;28;20100;-75
2023/10/27 08:32:14;;;;;;;6.88;1.80;;;18.60;99.90;;;;;;5052577;28;20033;-75
2023/10/27 08:34:39;;;;;;;5.60;1.85;;;18.60;99.90;;;;;;5052333;28;20125;-80
2023/10/27 08:37:06;;;;;;;6.03;1.90;;;18.60;99.90;;;;;;5052207;28;20112;-78
2023/10/27 08:39:34;;;;;;;12.05;2.15;;;18.60;99.90;;;;;;5052528;28;20469;-76
2023/10/27 08:42:03;;;;;;;8.85;1.52;;;18.50;99.90;;;;;;5052322;28;20074;-75
2023/10/27 08:44:30;;;;;;;8.75;2.35;;;18.50;99.90;;;;;;5034688;28;20017;-75
2023/10/27 08:46:57;;;;;;;7.82;2.85;;;18.50;99.90;;;;;;5052511;28;20436;-76
2023/10/27 08:49:23;;;;;;;6.22;1.67;;;18.50;99.90;;;;;;5052652;28;20025;-76
2023/10/27 08:51:49;;;;;;;5.18;1.45;;;18.40;99.90;;;;;;5052680;28;20083;-76
2023/10/27 08:54:15;;;;;;;5.70;1.73;;;18.50;99.90;;;;;;5052802;28;20025;-76
2023/10/27 08:56:41;;;;;;;5.63;1.60;;;18.50;99.90;;;;;;5052544;28;20032;-75
2023/10/27 08:59:10;;;;;;;8.13;1.80;;;18.50;99.90;;;;;;5052800;28;20540;-77
2023/10/27 09:01:36;;;;;;;6.47;1.63;;;18.50;99.90;;;;;;5052695;28;20116;-77
2023/10/27 09:04:13;;;;;;;7.72;1.83;;;18.50;99.90;;;;;;5051439;28;20024;-77
2023/10/27 09:06:41;;;;;;;6.50;1.73;;;18.50;99.90;;;;;;5052359;28;20032;-76
2023/10/27 09:09:09;;;;;;;6.75;1.90;;;18.40;99.90;;;;;;5052232;28;20420;-76
2023/10/27 09:11:43;;;;;;;7.57;1.85;;;18.40;99.90;;;;;;5052083;28;20017;-76
2023/10/27 09:14:26;;;;;;;7.70;1.75;;;18.50;99.90;;;;;;5052031;28;20381;-76
2023/10/27 09:17:06;;;;;;;7.43;1.70;;;18.40;99.90;;;;;;5052704;28;20040;-76
2023/10/27 09:19:33;;;;;;;6.43;1.50;;;18.50;99.90;;;;;;5052428;28;20045;-75
2023/10/27 09:21:59;;;;;;;6.40;2.13;;;18.50;99.90;;;;;;5052658;28;20040;-76
2023/10/27 09:24:25;;;;;;;4.45;1.63;;;18.50;99.90;;;;;;5052310;28;20036;-77
2023/10/27 09:26:52;;;;;;;5.90;1.40;;;18.40;99.90;;;;;;5052306;28;20029;-75
2023/10/27 09:29:18;;;;;;;4.45;1.45;;;18.40;99.90;;;;;;5052485;28;20021;-76
2023/10/27 09:31:44;;;;;;;6.35;1.60;;;18.40;99.90;;;;;;5034657;28;20029;-75
2023/10/27 09:34:25;;;;;;;4.53;1.30;;;18.40;99.90;;;;;;5055395;28;20396;-76
2023/10/27 09:36:52;;;;;;;5.68;2.17;;;18.40;99.90;;;;;;5056129;28;20056;-76
2023/10/27 09:39:25;;;;;;;6.18;1.67;;;18.40;99.90;;;;;;5055889;28;20029;-75
2023/10/27 09:42:06;;;;;;;5.53;1.25;;;18.40;99.90;;;;;;5055608;28;20032;-77
2023/10/27 09:44:45;;;;;;;4.30;1.55;;;18.30;99.90;;;;;;5055851;28;20056;-76
2023/10/27 09:47:23;;;;;;;5.53;1.20;;;18.30;99.90;;;;;;5055863;28;20086;-75
2023/10/27 09:49:57;;;;;;;3.22;1.23;;;18.20;99.90;;;;;;5055756;28;20036;-76
2023/10/27 09:52:28;;;;;;;5.18;1.20;;;18.20;99.90;;;;;;5037633;28;20032;-76
2023/10/27 09:54:59;;;;;;;5.97;1.30;;;18.20;99.90;;;;;;5037681;28;20040;-76
2023/10/27 09:57:26;;;;;;;5.13;1.25;;;18.20;99.90;;;;;;5055345;28;20043;-76
2023/10/27 09:59:54;;;;;;;5.65;1.48;;;18.10;99.90;;;;;;5055673;28;20025;-76
2023/10/27 10:02:23;;;;;;;4.00;1.48;;;18.20;99.90;;;;;;5037172;28;20029;-77
2023/10/27 10:04:52;;;;;;;2.05;1.30;;;18.20;99.90;;;;;;5055458;28;20112;-76
2023/10/27 10:07:41;;;;;;;4.07;1.40;;;18.20;99.90;;;;;;5055230;28;20025;-76
2023/10/27 10:10:16;;;;;;;5.65;1.40;;;18.20;99.90;;;;;;5055135;28;20025;-75
2023/10/27 10:13:01;;;;;;;3.70;1.17;;;18.20;99.90;;;;;;5055092;28;20029;-76
2023/10/27 10:15:32;;;;;;;3.92;1.45;;;18.20;99.90;;;;;;5055234;28;20110;-75
2023/10/27 10:18:00;;;;;;;5.45;1.50;;;18.20;99.90;;;;;;5055295;28;20433;-77
2023/10/27 10:20:44;;;;;;;3.40;1.77;;;18.20;99.90;;;;;;5055131;28;20060;-74
2023/10/27 10:23:11;;;;;;;3.85;1.65;;;18.20;99.90;;;;;;5054919;28;20029;-77
2023/10/27 10:25:52;;;;;;;2.58;1.27;;;18.30;99.90;;;;;;5055019;28;20025;-77
2023/10/27 10:28:18;;;;;;;2.92;1.80;;;18.30;99.90;;;;;;5055097;28;20028;-75
2023/10/27 10:30:48;;;;;;;7.13;1.67;;;18.40;99.90;;;;;;5054969;28;20078;-77
2023/10/27 10:33:16;;;;;;;4.25;1.60;;;18.40;99.90;;;;;;5054301;28;20060;-76
2023/10/27 10:35:44;;;;;;;4.28;1.50;;;18.40;99.90;;;;;;5054377;28;20033;-76
2023/10/27 10:38:22;;;;;;;6.68;1.73;;;18.50;99.90;;;;;;5054705;28;20378;-77
2023/10/27 10:40:56;;;;;;;6.93;1.67;;;18.50;99.90;;;;;;5055098;28;20033;-79
2023/10/27 10:43:27;;;;;;;5.00;1.70;;;18.50;99.90;;;;;;5054613;28;20401;-76
2023/10/27 10:45:58;;;;;;;3.58;1.35;;;18.50;99.90;;;;;;5054128;28;20104;-75
2023/10/27 10:48:26;;;;;;;5.07;1.60;;;18.50;99.90;;;;;;5054366;28;20378;-75
2023/10/27 10:50:55;;;;;;;3.95;1.48;;;18.50;99.90;;;;;;5054763;28;20067;-76
2023/10/27 10:53:24;;;;;;;1.98;1.15;;;18.50;99.90;;;;;;5054596;28;20448;-75
2023/10/27 10:55:51;;;;;;;2.45;1.35;;;18.50;99.90;;;;;;5054176;28;20064;-76
2023/10/27 10:58:25;;;;;;;6.78;1.70;;;18.50;99.90;;;;;;5054363;28;20389;-75
2023/10/27 11:00:55;;;;;;;3.33;1.30;;;18.60;99.90;;;;;;5053570;28;20052;-77
2023/10/27 11:03:23;;;;;;;3.15;1.30;;;18.60;99.90;;;;;;5040044;28;20010;-75
2023/10/27 11:05:54;;;;;;;2.22;0.88;;;18.70;99.90;;;;;;5032673;28;20037;-74
2023/10/27 11:08:28;;;;;;;1.73;0.90;;;18.70;99.90;;;;;;5033775;28;20017;-75
2023/10/27 11:11:01;;;;;;;2.22;0.90;;;18.70;99.90;;;;;;5033937;28;20030;-75
2023/10/27 11:13:28;;;;;;;5.60;0.93;;;18.70;99.90;;;;;;5030530;28;20029;-75
2023/10/27 11:15:54;;;;;;;3.75;1.00;;;18.70;99.90;;;;;;5030996;28;20429;-74
2023/10/27 11:18:19;;;;;;;1.20;0.80;;;18.70;99.90;;;;;;5032268;28;20036;-75
2023/10/27 11:20:51;;;;;;;1.90;0.70;;;18.80;99.90;;;;;;5033875;28;20045;-74
2023/10/27 11:23:26;;;;;;;7.93;1.30;;;18.80;99.90;;;;;;5033973;28;20033;-75
2023/10/27 11:26:04;;;;;;;3.75;1.25;;;18.90;99.90;;;;;;5033666;28;20068;-75
2023/10/27 11:28:30;;;;;;;3.25;1.38;;;18.90;99.90;;;;;;5033324;28;20029;-74
2023/10/27 11:31:08;;;;;;;3.28;1.45;;;18.90;99.90;;;;;;5033293;28;20528;-75
2023/10/27 11:33:55;;;;;;;5.95;1.50;;;18.90;99.90;;;;;;5030508;28;20456;-74
2023/10/27 11:36:21;;;;;;;3.03;1.30;;;18.90;99.90;;;;;;4999407;28;20461;-74
2023/10/27 11:38:47;;;;;;;5.63;1.40;;;18.90;99.90;;;;;;5031786;28;20028;-74
2023/10/27 11:41:13;;;;;;;2.58;1.50;;;19.00;99.90;;;;;;5033192;28;20100;-75
2023/10/27 11:43:44;;;;;;;4.32;1.25;;;19.00;99.90;;;;;;5033263;28;20021;-74
2023/10/27 11:46:15;;;;;;;3.47;1.60;;;19.00;99.90;;;;;;5033154;28;20433;-74
2023/10/27 11:48:42;;;;;;;2.08;1.00;;;19.00;99.90;;;;;;5033016;28;20275;-74
2023/10/27 11:51:08;;;;;;;3.50;1.13;;;19.00;99.90;;;;;;5033281;28;20450;-74
2023/10/27 11:53:34;;;;;;;7.43;1.10;;;19.10;99.90;;;;;;5033052;28;20025;-74
2023/10/27 11:56:03;;;;;;;1.60;1.05;;;19.10;99.90;;;;;;5032161;28;20030;-74
2023/10/27 11:58:30;;;;;;;2.47;1.30;;;19.10;99.90;;;;;;5032850;28;20047;-74
2023/10/27 12:00:55;;;;;;;3.65;1.30;;;19.10;99.90;;;;;;5033058;28;20040;-74
2023/10/27 12:03:21;;;;;;;4.47;1.30;;;19.10;99.90;;;;;;5032642;28;20033;-74
2023/10/27 12:05:47;;;;;;;3.88;0.98;;;19.10;99.90;;;;;;5032996;28;20021;-74
2023/10/27 12:08:14;;;;;;;2.33;1.08;;;19.10;99.90;;;;;;5032507;28;20104;-75
2023/10/27 12:10:43;;;;;;;5.45;1.55;;;19.20;99.90;;;;;;5032440;28;20022;-75
2023/10/27 12:13:09;;;;;;;4.30;1.48;;;19.30;99.90;;;;;;5038814;28;20017;-75
2023/10/27 12:15:38;;;;;;;3.35;1.30;;;19.40;99.90;;;;;;5052542;28;20027;-75
2023/10/27 12:18:07;;;;;;;3.63;1.25;;;19.40;99.90;;;;;;5051986;28;20381;-74
2023/10/27 12:20:34;;;;;;;3.03;1.20;;;19.40;99.90;;;;;;5052122;28;20073;-74
2023/10/27 12:23:04;;;;;;;4.57;1.40;;;19.40;99.90;;;;;;5052676;28;20044;-74
2023/10/27 12:25:30;;;;;;;3.25;1.45;;;19.40;99.90;;;;;;5052437;28;20044;-75
2023/10/27 12:27:56;;;;;;;2.70;1.38;;;19.40;99.90;;;;;;5052649;28;20033;-73
2023/10/27 12:30:23;;;;;;;4.00;1.40;;;19.40;99.90;;;;;;5052555;28;20346;-73
2023/10/27 12:32:49;;;;;;;3.25;1.70;;;19.50;99.90;;;;;;5051644;28;20440;-74
2023/10/27 12:35:15;;;;;;;5.13;1.80;;;19.50;99.90;;;;;;5052211;28;20052;-79
2023/10/27 12:37:44;;;;;;;3.42;1.30;;;19.60;99.90;;;;;;5052656;28;20037;-76
2023/10/27 12:40:12;;;;;;;5.00;1.65;;;19.60;99.90;;;;;;5052209;28;20044;-76
2023/10/27 12:42:39;;;;;;;5.50;1.60;;;19.70;99.90;;;;;;5052532;28;20021;-77